Aviation Digital Data Service (ADDS)

Output produced by TAFs form (1744 UTC 18 September 2014)
found at http://www.aviationweather.gov/adds/tafs/
 
KGFL 181743Z 1818/1918 05008G14KT P6SM VCSH BKN060 
     FM182300 03005KT P6SM BKN050 
     FM190100 02004KT P6SM SCT050 
     FM190600 VRB02KT P6SM SKC 
     TEMPO 1907/1911 2SM BR BKN003 
     FM191300 06006KT P6SM SKC